sensor_id;sensor_type;location;lat;lon;timestamp;pressure;altitude;pressure_sealevel;temperature;humidity
33859;BME280;20156;47.486;12.074;2023-05-09T00:00:36;63601.63;;;-144.78;100.00
33859;BME280;20156;47.486;12.074;2023-05-09T00:03:02;63601.63;;;-144.78;100.00
33859;BME280;20156;47.486;12.074;2023-05-09T00:05:30;63601.63;;;-144.78;100.00
33859;BME280;20156;47.486;12.074;2023-05-09T00:07:55;63601.63;;;-144.78;100.00
33859;BME280;20156;47.486;12.074;2023-05-09T00:10:21;63601.63;;;-144.78;100.00
33859;BME280;20156;47.486;12.074;2023-05-09T00:12:46;63601.63;;;-144.78;100.00
33859;BME280;20156;47.486;12.074;2023-05-09T00:15:13;63601.63;;;-144.78;100.00
33859;BME280;20156;47.486;12.074;2023-05-09T00:17:39;63601.63;;;-144.78;100.00
33859;BME280;20156;47.486;12.074;2023-05-09T00:20:06;63601.63;;;-144.78;100.00
33859;BME280;20156;47.486;12.074;2023-05-09T00:22:35;63601.63;;;-144.78;100.00
33859;BME280;20156;47.486;12.074;2023-05-09T00:25:01;63601.63;;;-144.78;100.00
33859;BME280;20156;47.486;12.074;2023-05-09T00:27:26;63601.63;;;-144.78;100.00
33859;BME280;20156;47.486;12.074;2023-05-09T00:29:54;63601.63;;;-144.78;100.00
33859;BME280;20156;47.486;12.074;2023-05-09T00:32:20;63601.63;;;-144.78;100.00
33859;BME280;20156;47.486;12.074;2023-05-09T00:34:45;63601.63;;;-144.78;100.00
33859;BME280;20156;47.486;12.074;2023-05-09T00:37:10;63601.63;;;-144.78;100.00
33859;BME280;20156;47.486;12.074;2023-05-09T00:39:36;63601.63;;;-144.78;100.00
33859;BME280;20156;47.486;12.074;2023-05-09T00:42:01;63601.63;;;-144.78;100.00
33859;BME280;20156;47.486;12.074;2023-05-09T00:44:27;63601.63;;;-144.78;100.00
33859;BME280;20156;47.486;12.074;2023-05-09T00:46:53;63601.63;;;-144.78;100.00
33859;BME280;20156;47.486;12.074;2023-05-09T00:49:19;63601.63;;;-144.78;100.00
33859;BME280;20156;47.486;12.074;2023-05-09T00:51:45;63601.63;;;-144.78;100.00
33859;BME280;20156;47.486;12.074;2023-05-09T00:54:11;63601.63;;;-144.78;100.00
33859;BME280;20156;47.486;12.074;2023-05-09T00:56:37;63601.63;;;-144.78;100.00
33859;BME280;20156;47.486;12.074;2023-05-09T00:59:02;63601.63;;;-144.78;100.00
33859;BME280;20156;47.486;12.074;2023-05-09T01:01:27;63601.63;;;-144.78;100.00
33859;BME280;20156;47.486;12.074;2023-05-09T01:03:54;63601.63;;;-144.78;100.00
33859;BME280;20156;47.486;12.074;2023-05-09T01:06:47;63601.63;;;-144.78;100.00
33859;BME280;20156;47.486;12.074;2023-05-09T01:09:42;63601.63;;;-144.78;100.00
33859;BME280;20156;47.486;12.074;2023-05-09T01:15:50;63601.63;;;-144.78;100.00
33859;BME280;20156;47.486;12.074;2023-05-09T01:17:59;63601.63;;;-144.78;100.00
33859;BME280;20156;47.486;12.074;2023-05-09T01:20:50;63601.63;;;-144.78;100.00
33859;BME280;20156;47.486;12.074;2023-05-09T01:26:03;63601.63;;;-144.78;100.00
33859;BME280;20156;47.486;12.074;2023-05-09T01:31:19;63601.63;;;-144.78;100.00
33859;BME280;20156;47.486;12.074;2023-05-09T01:33:46;63601.63;;;-144.78;100.00
33859;BME280;20156;47.486;12.074;2023-05-09T01:36:15;63601.63;;;-144.78;100.00
33859;BME280;20156;47.486;12.074;2023-05-09T01:38:43;63601.63;;;-144.78;100.00
33859;BME280;20156;47.486;12.074;2023-05-09T01:41:11;63601.63;;;-144.78;100.00
33859;BME280;20156;47.486;12.074;2023-05-09T01:43:37;63601.63;;;-144.78;100.00
33859;BME280;20156;47.486;12.074;2023-05-09T01:46:05;63601.63;;;-144.78;100.00
33859;BME280;20156;47.486;12.074;2023-05-09T01:48:32;63601.63;;;-144.78;100.00
33859;BME280;20156;47.486;12.074;2023-05-09T01:51:00;63601.63;;;-144.78;100.00
33859;BME280;20156;47.486;12.074;2023-05-09T01:53:27;63601.63;;;-144.78;100.00
33859;BME280;20156;47.486;12.074;2023-05-09T01:55:53;63601.63;;;-144.78;100.00
33859;BME280;20156;47.486;12.074;2023-05-09T01:58:21;63601.63;;;-144.78;100.00
33859;BME280;20156;47.486;12.074;2023-05-09T02:00:49;63601.63;;;-144.78;100.00
33859;BME280;20156;47.486;12.074;2023-05-09T02:03:15;63601.63;;;-144.78;100.00
33859;BME280;20156;47.486;12.074;2023-05-09T02:05:41;63601.63;;;-144.78;100.00
33859;BME280;20156;47.486;12.074;2023-05-09T02:08:07;63601.63;;;-144.78;100.00
33859;BME280;20156;47.486;12.074;2023-05-09T02:10:34;63601.63;;;-144.78;100.00
33859;BME280;20156;47.486;12.074;2023-05-09T02:12:59;63601.63;;;-144.78;100.00
33859;BME280;20156;47.486;12.074;2023-05-09T02:15:25;63601.63;;;-144.78;100.00
33859;BME280;20156;47.486;12.074;2023-05-09T02:17:51;63601.63;;;-144.78;100.00
33859;BME280;20156;47.486;12.074;2023-05-09T02:20:17;63601.63;;;-144.78;100.00
33859;BME280;20156;47.486;12.074;2023-05-09T02:22:43;63601.63;;;-144.78;100.00
33859;BME280;20156;47.486;12.074;2023-05-09T02:25:10;63601.63;;;-144.78;100.00
33859;BME280;20156;47.486;12.074;2023-05-09T02:27:37;63601.63;;;-144.78;100.00
33859;BME280;20156;47.486;12.074;2023-05-09T02:30:07;63601.63;;;-144.78;100.00
33859;BME280;20156;47.486;12.074;2023-05-09T02:32:35;63601.63;;;-144.78;100.00
33859;BME280;20156;47.486;12.074;2023-05-09T02:35:03;63601.63;;;-144.78;100.00
33859;BME280;20156;47.486;12.074;2023-05-09T02:37:30;63601.63;;;-144.78;100.00
33859;BME280;20156;47.486;12.074;2023-05-09T02:39:55;63601.63;;;-144.78;100.00
33859;BME280;20156;47.486;12.074;2023-05-09T02:42:22;63601.63;;;-144.78;100.00
33859;BME280;20156;47.486;12.074;2023-05-09T02:44:50;63601.63;;;-144.78;100.00
33859;BME280;20156;47.486;12.074;2023-05-09T02:47:15;63601.63;;;-144.78;100.00
33859;BME280;20156;47.486;12.074;2023-05-09T02:49:41;63601.63;;;-144.78;100.00
33859;BME280;20156;47.486;12.074;2023-05-09T02:52:06;63601.63;;;-144.78;100.00
33859;BME280;20156;47.486;12.074;2023-05-09T02:54:32;63601.63;;;-144.78;100.00
33859;BME280;20156;47.486;12.074;2023-05-09T02:56:57;63601.63;;;-144.78;100.00
33859;BME280;20156;47.486;12.074;2023-05-09T02:59:24;63601.63;;;-144.78;100.00
33859;BME280;20156;47.486;12.074;2023-05-09T03:01:49;63601.63;;;-144.78;100.00
33859;BME280;20156;47.486;12.074;2023-05-09T03:04:15;63601.63;;;-144.78;100.00
33859;BME280;20156;47.486;12.074;2023-05-09T03:06:40;63601.63;;;-144.78;100.00
33859;BME280;20156;47.486;12.074;2023-05-09T03:09:06;63601.63;;;-144.78;100.00
33859;BME280;20156;47.486;12.074;2023-05-09T03:11:31;63601.63;;;-144.78;100.00
33859;BME280;20156;47.486;12.074;2023-05-09T03:13:56;63601.63;;;-144.78;100.00
33859;BME280;20156;47.486;12.074;2023-05-09T03:16:22;63601.63;;;-144.78;100.00
33859;BME280;20156;47.486;12.074;2023-05-09T03:18:47;63601.63;;;-144.78;100.00
33859;BME280;20156;47.486;12.074;2023-05-09T03:21:13;63601.63;;;-144.78;100.00
33859;BME280;20156;47.486;12.074;2023-05-09T03:23:38;63601.63;;;-144.78;100.00
33859;BME280;20156;47.486;12.074;2023-05-09T03:26:04;63601.63;;;-144.78;100.00
33859;BME280;20156;47.486;12.074;2023-05-09T03:28:29;63601.63;;;-144.78;100.00
33859;BME280;20156;47.486;12.074;2023-05-09T03:30:55;63601.63;;;-144.78;100.00
33859;BME280;20156;47.486;12.074;2023-05-09T03:33:20;63601.63;;;-144.78;100.00
33859;BME280;20156;47.486;12.074;2023-05-09T03:35:46;63601.63;;;-144.78;100.00
33859;BME280;20156;47.486;12.074;2023-05-09T03:38:11;63601.63;;;-144.78;100.00
33859;BME280;20156;47.486;12.074;2023-05-09T03:40:36;63601.63;;;-144.78;100.00
33859;BME280;20156;47.486;12.074;2023-05-09T03:43:02;63601.63;;;-144.78;100.00
33859;BME280;20156;47.486;12.074;2023-05-09T03:45:27;63601.63;;;-144.78;100.00
33859;BME280;20156;47.486;12.074;2023-05-09T03:47:53;63601.63;;;-144.78;100.00
33859;BME280;20156;47.486;12.074;2023-05-09T03:50:18;63601.63;;;-144.78;100.00
33859;BME280;20156;47.486;12.074;2023-05-09T03:52:43;63601.63;;;-144.78;100.00
33859;BME280;20156;47.486;12.074;2023-05-09T03:55:09;63601.63;;;-144.78;100.00
33859;BME280;20156;47.486;12.074;2023-05-09T03:57:34;63601.63;;;-144.78;100.00
33859;BME280;20156;47.486;12.074;2023-05-09T04:00:00;63601.63;;;-144.78;100.00
33859;BME280;20156;47.486;12.074;2023-05-09T04:02:26;63601.63;;;-144.78;100.00
33859;BME280;20156;47.486;12.074;2023-05-09T04:04:51;63601.63;;;-144.78;100.00
33859;BME280;20156;47.486;12.074;2023-05-09T04:07:17;63601.63;;;-144.78;100.00
33859;BME280;20156;47.486;12.074;2023-05-09T04:09:43;63601.63;;;-144.78;100.00
33859;BME280;20156;47.486;12.074;2023-05-09T04:12:09;63601.63;;;-144.78;100.00
33859;BME280;20156;47.486;12.074;2023-05-09T04:14:34;63601.63;;;-144.78;100.00
33859;BME280;20156;47.486;12.074;2023-05-09T04:16:59;63601.63;;;-144.78;100.00
33859;BME280;20156;47.486;12.074;2023-05-09T04:19:25;63601.63;;;-144.78;100.00
33859;BME280;20156;47.486;12.074;2023-05-09T04:21:50;63601.63;;;-144.78;100.00
33859;BME280;20156;47.486;12.074;2023-05-09T04:24:16;63601.63;;;-144.78;100.00
33859;BME280;20156;47.486;12.074;2023-05-09T04:26:41;63601.63;;;-144.78;100.00
33859;BME280;20156;47.486;12.074;2023-05-09T04:29:07;63601.63;;;-144.78;100.00
33859;BME280;20156;47.486;12.074;2023-05-09T04:31:33;63601.63;;;-144.78;100.00
33859;BME280;20156;47.486;12.074;2023-05-09T04:33:59;63601.63;;;-144.78;100.00
33859;BME280;20156;47.486;12.074;2023-05-09T04:36:24;63601.63;;;-144.78;100.00
33859;BME280;20156;47.486;12.074;2023-05-09T04:38:51;63601.63;;;-144.78;100.00
33859;BME280;20156;47.486;12.074;2023-05-09T04:41:17;63601.63;;;-144.78;100.00
33859;BME280;20156;47.486;12.074;2023-05-09T04:43:42;63601.63;;;-144.78;100.00
33859;BME280;20156;47.486;12.074;2023-05-09T04:46:07;63601.63;;;-144.78;100.00
33859;BME280;20156;47.486;12.074;2023-05-09T04:48:34;63601.63;;;-144.78;100.00
33859;BME280;20156;47.486;12.074;2023-05-09T04:50:59;63601.63;;;-144.78;100.00
33859;BME280;20156;47.486;12.074;2023-05-09T04:53:25;63601.63;;;-144.78;100.00
33859;BME280;20156;47.486;12.074;2023-05-09T04:55:51;63601.63;;;-144.78;100.00
33859;BME280;20156;47.486;12.074;2023-05-09T04:58:16;63601.63;;;-144.78;100.00
33859;BME280;20156;47.486;12.074;2023-05-09T05:00:41;63601.63;;;-144.78;100.00
33859;BME280;20156;47.486;12.074;2023-05-09T05:03:07;63601.63;;;-144.78;100.00
33859;BME280;20156;47.486;12.074;2023-05-09T05:05:32;63601.63;;;-144.78;100.00
33859;BME280;20156;47.486;12.074;2023-05-09T05:07:57;63601.63;;;-144.78;100.00
33859;BME280;20156;47.486;12.074;2023-05-09T05:10:23;63601.63;;;-144.78;100.00
33859;BME280;20156;47.486;12.074;2023-05-09T05:12:48;63601.63;;;-144.78;100.00
33859;BME280;20156;47.486;12.074;2023-05-09T05:15:14;63601.63;;;-144.78;100.00
33859;BME280;20156;47.486;12.074;2023-05-09T05:17:39;63601.63;;;-144.78;100.00
33859;BME280;20156;47.486;12.074;2023-05-09T05:20:05;63601.63;;;-144.78;100.00
33859;BME280;20156;47.486;12.074;2023-05-09T05:22:32;63601.63;;;-144.78;100.00
33859;BME280;20156;47.486;12.074;2023-05-09T05:24:57;63601.63;;;-144.78;100.00
33859;BME280;20156;47.486;12.074;2023-05-09T05:27:23;63601.63;;;-144.78;100.00
33859;BME280;20156;47.486;12.074;2023-05-09T05:29:48;63601.63;;;-144.78;100.00
33859;BME280;20156;47.486;12.074;2023-05-09T05:32:13;63601.63;;;-144.78;100.00
33859;BME280;20156;47.486;12.074;2023-05-09T05:34:39;63601.63;;;-144.78;100.00
33859;BME280;20156;47.486;12.074;2023-05-09T05:37:04;63601.63;;;-144.78;100.00
33859;BME280;20156;47.486;12.074;2023-05-09T05:39:30;63601.63;;;-144.78;100.00
33859;BME280;20156;47.486;12.074;2023-05-09T05:41:55;63601.63;;;-144.78;100.00
33859;BME280;20156;47.486;12.074;2023-05-09T05:44:21;63601.63;;;-144.78;100.00
33859;BME280;20156;47.486;12.074;2023-05-09T05:46:46;63601.63;;;-144.78;100.00
33859;BME280;20156;47.486;12.074;2023-05-09T05:49:12;63601.63;;;-144.78;100.00
33859;BME280;20156;47.486;12.074;2023-05-09T05:51:37;63601.63;;;-144.78;100.00
33859;BME280;20156;47.486;12.074;2023-05-09T05:54:02;63601.63;;;-144.78;100.00
33859;BME280;20156;47.486;12.074;2023-05-09T05:56:28;63601.63;;;-144.78;100.00
33859;BME280;20156;47.486;12.074;2023-05-09T05:58:53;63601.63;;;-144.78;100.00
33859;BME280;20156;47.486;12.074;2023-05-09T06:01:19;63601.63;;;-144.78;100.00
33859;BME280;20156;47.486;12.074;2023-05-09T06:03:44;63601.63;;;-144.78;100.00
33859;BME280;20156;47.486;12.074;2023-05-09T06:06:10;63601.63;;;-144.78;100.00
33859;BME280;20156;47.486;12.074;2023-05-09T06:08:35;63601.63;;;-144.78;100.00
33859;BME280;20156;47.486;12.074;2023-05-09T06:11:00;63601.63;;;-144.78;100.00
33859;BME280;20156;47.486;12.074;2023-05-09T06:13:26;63601.63;;;-144.78;100.00
33859;BME280;20156;47.486;12.074;2023-05-09T06:15:54;63601.63;;;-144.78;100.00
33859;BME280;20156;47.486;12.074;2023-05-09T06:18:21;63601.63;;;-144.78;100.00
33859;BME280;20156;47.486;12.074;2023-05-09T06:20:46;63601.63;;;-144.78;100.00
33859;BME280;20156;47.486;12.074;2023-05-09T06:23:11;63601.63;;;-144.78;100.00
33859;BME280;20156;47.486;12.074;2023-05-09T06:25:37;63601.63;;;-144.78;100.00
33859;BME280;20156;47.486;12.074;2023-05-09T06:28:03;63601.63;;;-144.78;100.00
33859;BME280;20156;47.486;12.074;2023-05-09T06:30:29;63601.63;;;-144.78;100.00
33859;BME280;20156;47.486;12.074;2023-05-09T06:32:54;63601.63;;;-144.78;100.00
33859;BME280;20156;47.486;12.074;2023-05-09T06:35:19;63601.63;;;-144.78;100.00
33859;BME280;20156;47.486;12.074;2023-05-09T06:37:45;63601.63;;;-144.78;100.00
33859;BME280;20156;47.486;12.074;2023-05-09T06:40:10;63601.63;;;-144.78;100.00
33859;BME280;20156;47.486;12.074;2023-05-09T06:42:36;63601.63;;;-144.78;100.00
33859;BME280;20156;47.486;12.074;2023-05-09T06:45:01;63601.63;;;-144.78;100.00
33859;BME280;20156;47.486;12.074;2023-05-09T06:47:26;63601.63;;;-144.78;100.00
33859;BME280;20156;47.486;12.074;2023-05-09T06:49:52;63601.63;;;-144.78;100.00
33859;BME280;20156;47.486;12.074;2023-05-09T06:52:17;63601.63;;;-144.78;100.00
33859;BME280;20156;47.486;12.074;2023-05-09T06:54:45;63601.63;;;-144.78;100.00
33859;BME280;20156;47.486;12.074;2023-05-09T06:57:11;63601.63;;;-144.78;100.00
33859;BME280;20156;47.486;12.074;2023-05-09T06:59:36;63601.63;;;-144.78;100.00
33859;BME280;20156;47.486;12.074;2023-05-09T07:02:01;63601.63;;;-144.78;100.00
33859;BME280;20156;47.486;12.074;2023-05-09T07:04:27;63601.63;;;-144.78;100.00
33859;BME280;20156;47.486;12.074;2023-05-09T07:06:52;63601.63;;;-144.78;100.00
33859;BME280;20156;47.486;12.074;2023-05-09T07:09:17;63601.63;;;-144.78;100.00
33859;BME280;20156;47.486;12.074;2023-05-09T07:11:45;63601.63;;;-144.78;100.00
33859;BME280;20156;47.486;12.074;2023-05-09T07:14:10;63601.63;;;-144.78;100.00
33859;BME280;20156;47.486;12.074;2023-05-09T07:16:36;63601.63;;;-144.78;100.00
33859;BME280;20156;47.486;12.074;2023-05-09T07:19:01;63601.63;;;-144.78;100.00
33859;BME280;20156;47.486;12.074;2023-05-09T07:21:26;63601.63;;;-144.78;100.00
33859;BME280;20156;47.486;12.074;2023-05-09T07:23:52;63601.63;;;-144.78;100.00
33859;BME280;20156;47.486;12.074;2023-05-09T07:26:17;63601.63;;;-144.78;100.00
33859;BME280;20156;47.486;12.074;2023-05-09T07:28:43;63601.63;;;-144.78;100.00
33859;BME280;20156;47.486;12.074;2023-05-09T07:31:08;63601.63;;;-144.78;100.00
33859;BME280;20156;47.486;12.074;2023-05-09T07:33:33;63601.63;;;-144.78;100.00
33859;BME280;20156;47.486;12.074;2023-05-09T07:35:59;63601.63;;;-144.78;100.00
33859;BME280;20156;47.486;12.074;2023-05-09T07:38:25;63601.63;;;-144.78;100.00
33859;BME280;20156;47.486;12.074;2023-05-09T07:40:50;63601.63;;;-144.78;100.00
33859;BME280;20156;47.486;12.074;2023-05-09T07:43:17;63601.63;;;-144.78;100.00
33859;BME280;20156;47.486;12.074;2023-05-09T07:45:43;63601.63;;;-144.78;100.00
33859;BME280;20156;47.486;12.074;2023-05-09T07:48:08;63601.63;;;-144.78;100.00
33859;BME280;20156;47.486;12.074;2023-05-09T07:50:33;63601.63;;;-144.78;100.00
33859;BME280;20156;47.486;12.074;2023-05-09T07:52:59;63601.63;;;-144.78;100.00
33859;BME280;20156;47.486;12.074;2023-05-09T07:55:24;63601.63;;;-144.78;100.00
33859;BME280;20156;47.486;12.074;2023-05-09T07:57:50;63601.63;;;-144.78;100.00
33859;BME280;20156;47.486;12.074;2023-05-09T08:00:15;63601.63;;;-144.78;100.00
33859;BME280;20156;47.486;12.074;2023-05-09T08:02:41;63601.63;;;-144.78;100.00
33859;BME280;20156;47.486;12.074;2023-05-09T08:05:07;63601.63;;;-144.78;100.00
33859;BME280;20156;47.486;12.074;2023-05-09T08:07:33;63601.63;;;-144.78;100.00
33859;BME280;20156;47.486;12.074;2023-05-09T08:09:58;63601.63;;;-144.78;100.00
33859;BME280;20156;47.486;12.074;2023-05-09T08:12:23;63601.63;;;-144.78;100.00
33859;BME280;20156;47.486;12.074;2023-05-09T08:14:49;63601.63;;;-144.78;100.00
33859;BME280;20156;47.486;12.074;2023-05-09T08:17:14;63601.63;;;-144.78;100.00
33859;BME280;20156;47.486;12.074;2023-05-09T08:19:40;63601.63;;;-144.78;100.00
33859;BME280;20156;47.486;12.074;2023-05-09T08:22:06;63601.63;;;-144.78;100.00
33859;BME280;20156;47.486;12.074;2023-05-09T08:24:31;63601.63;;;-144.78;100.00
33859;BME280;20156;47.486;12.074;2023-05-09T08:26:57;63601.63;;;-144.78;100.00
33859;BME280;20156;47.486;12.074;2023-05-09T08:29:22;63601.63;;;-144.78;100.00
33859;BME280;20156;47.486;12.074;2023-05-09T08:31:48;63601.63;;;-144.78;100.00
33859;BME280;20156;47.486;12.074;2023-05-09T08:34:13;63601.63;;;-144.78;100.00
33859;BME280;20156;47.486;12.074;2023-05-09T08:36:39;63601.63;;;-144.78;100.00
33859;BME280;20156;47.486;12.074;2023-05-09T08:39:05;63601.63;;;-144.78;100.00
33859;BME280;20156;47.486;12.074;2023-05-09T08:41:32;63601.63;;;-144.78;100.00
33859;BME280;20156;47.486;12.074;2023-05-09T08:44:00;63601.63;;;-144.78;100.00
33859;BME280;20156;47.486;12.074;2023-05-09T08:46:31;63601.63;;;-144.78;100.00
33859;BME280;20156;47.486;12.074;2023-05-09T08:48:59;63601.63;;;-144.78;100.00
33859;BME280;20156;47.486;12.074;2023-05-09T08:51:25;63601.63;;;-144.78;100.00
33859;BME280;20156;47.486;12.074;2023-05-09T08:53:51;63601.63;;;-144.78;100.00
33859;BME280;20156;47.486;12.074;2023-05-09T08:56:17;63601.63;;;-144.78;100.00
33859;BME280;20156;47.486;12.074;2023-05-09T08:58:43;63601.63;;;-144.78;100.00
33859;BME280;20156;47.486;12.074;2023-05-09T09:01:11;63601.63;;;-144.78;100.00
33859;BME280;20156;47.486;12.074;2023-05-09T09:03:38;63601.63;;;-144.78;100.00
33859;BME280;20156;47.486;12.074;2023-05-09T09:06:06;63601.63;;;-144.78;100.00
33859;BME280;20156;47.486;12.074;2023-05-09T09:08:33;63601.63;;;-144.78;100.00
33859;BME280;20156;47.486;12.074;2023-05-09T09:10:59;63601.63;;;-144.78;100.00
33859;BME280;20156;47.486;12.074;2023-05-09T09:13:25;63601.63;;;-144.78;100.00
33859;BME280;20156;47.486;12.074;2023-05-09T09:15:52;63601.63;;;-144.78;100.00
33859;BME280;20156;47.486;12.074;2023-05-09T09:18:22;63601.63;;;-144.78;100.00
33859;BME280;20156;47.486;12.074;2023-05-09T09:20:52;63601.63;;;-144.78;100.00
33859;BME280;20156;47.486;12.074;2023-05-09T09:23:23;63601.63;;;-144.78;100.00
33859;BME280;20156;47.486;12.074;2023-05-09T09:25:56;63601.63;;;-144.78;100.00
33859;BME280;20156;47.486;12.074;2023-05-09T09:28:22;63601.63;;;-144.78;100.00
33859;BME280;20156;47.486;12.074;2023-05-09T09:30:47;63601.63;;;-144.78;100.00
33859;BME280;20156;47.486;12.074;2023-05-09T09:33:20;63601.63;;;-144.78;100.00
33859;BME280;20156;47.486;12.074;2023-05-09T09:35:49;63601.63;;;-144.78;100.00
33859;BME280;20156;47.486;12.074;2023-05-09T09:38:17;63601.63;;;-144.78;100.00
33859;BME280;20156;47.486;12.074;2023-05-09T09:40:56;63601.63;;;-144.78;100.00
33859;BME280;20156;47.486;12.074;2023-05-09T09:43:31;63601.63;;;-144.78;100.00
33859;BME280;20156;47.486;12.074;2023-05-09T09:46:03;63601.63;;;-144.78;100.00
33859;BME280;20156;47.486;12.074;2023-05-09T09:48:31;63601.63;;;-144.78;100.00
33859;BME280;20156;47.486;12.074;2023-05-09T09:51:02;63601.63;;;-144.78;100.00
33859;BME280;20156;47.486;12.074;2023-05-09T09:53:28;63601.63;;;-144.78;100.00
33859;BME280;20156;47.486;12.074;2023-05-09T09:55:55;63601.63;;;-144.78;100.00
33859;BME280;20156;47.486;12.074;2023-05-09T09:58:20;63601.63;;;-144.78;100.00
33859;BME280;20156;47.486;12.074;2023-05-09T10:01:11;63601.63;;;-144.78;100.00
33859;BME280;20156;47.486;12.074;2023-05-09T10:03:42;63601.63;;;-144.78;100.00
33859;BME280;20156;47.486;12.074;2023-05-09T10:06:13;63601.63;;;-144.78;100.00
33859;BME280;20156;47.486;12.074;2023-05-09T10:08:39;63601.63;;;-144.78;100.00
33859;BME280;20156;47.486;12.074;2023-05-09T10:11:05;63601.63;;;-144.78;100.00
33859;BME280;20156;47.486;12.074;2023-05-09T10:13:33;63601.63;;;-144.78;100.00
33859;BME280;20156;47.486;12.074;2023-05-09T10:16:00;63601.63;;;-144.78;100.00
33859;BME280;20156;47.486;12.074;2023-05-09T10:18:28;63601.63;;;-144.78;100.00
33859;BME280;20156;47.486;12.074;2023-05-09T10:20:56;63601.63;;;-144.78;100.00
33859;BME280;20156;47.486;12.074;2023-05-09T10:23:25;63601.63;;;-144.78;100.00
33859;BME280;20156;47.486;12.074;2023-05-09T10:26:02;63601.63;;;-144.78;100.00
33859;BME280;20156;47.486;12.074;2023-05-09T10:28:31;63601.63;;;-144.78;100.00
33859;BME280;20156;47.486;12.074;2023-05-09T10:31:25;63601.63;;;-144.78;100.00
33859;BME280;20156;47.486;12.074;2023-05-09T10:33:52;63601.63;;;-144.78;100.00
33859;BME280;20156;47.486;12.074;2023-05-09T10:36:19;63601.63;;;-144.78;100.00
33859;BME280;20156;47.486;12.074;2023-05-09T10:38:49;63601.63;;;-144.78;100.00
33859;BME280;20156;47.486;12.074;2023-05-09T10:41:15;63601.63;;;-144.78;100.00
33859;BME280;20156;47.486;12.074;2023-05-09T10:43:44;63601.63;;;-144.78;100.00
33859;BME280;20156;47.486;12.074;2023-05-09T10:46:11;63601.63;;;-144.78;100.00
33859;BME280;20156;47.486;12.074;2023-05-09T10:48:37;63601.63;;;-144.78;100.00
33859;BME280;20156;47.486;12.074;2023-05-09T10:51:04;63601.63;;;-144.78;100.00
33859;BME280;20156;47.486;12.074;2023-05-09T10:53:43;63601.63;;;-144.78;100.00
33859;BME280;20156;47.486;12.074;2023-05-09T10:56:24;63601.63;;;-144.78;100.00
33859;BME280;20156;47.486;12.074;2023-05-09T10:58:51;63601.63;;;-144.78;100.00
33859;BME280;20156;47.486;12.074;2023-05-09T11:01:31;94897.97;;;15.03;100.00
33859;BME280;20156;47.486;12.074;2023-05-09T11:03:59;94897.97;;;15.03;100.00
33859;BME280;20156;47.486;12.074;2023-05-09T11:06:41;94897.97;;;15.03;100.00
33859;BME280;20156;47.486;12.074;2023-05-09T11:09:40;94897.97;;;15.03;100.00
33859;BME280;20156;47.486;12.074;2023-05-09T11:12:10;94897.97;;;15.03;100.00
33859;BME280;20156;47.486;12.074;2023-05-09T11:14:37;94759.16;;;24.45;100.00
33859;BME280;20156;47.486;12.074;2023-05-09T11:17:08;94730.56;;;24.14;100.00
33859;BME280;20156;47.486;12.074;2023-05-09T11:22:23;94809.78;;;24.04;100.00
33859;BME280;20156;47.486;12.074;2023-05-09T11:24:58;94713.34;;;23.48;100.00
33859;BME280;20156;47.486;12.074;2023-05-09T11:27:26;94672.25;;;22.91;100.00
33859;BME280;20156;47.486;12.074;2023-05-09T11:29:57;94656.41;;;23.54;100.00
33859;BME280;20156;47.486;12.074;2023-05-09T11:32:43;94609.72;;;24.82;100.00
33859;BME280;20156;47.486;12.074;2023-05-09T11:35:15;94583.69;;;25.19;100.00
33859;BME280;20156;47.486;12.074;2023-05-09T11:37:52;94579.25;;;24.97;100.00
33859;BME280;20156;47.486;12.074;2023-05-09T11:40:20;94580.44;;;25.22;100.00
33859;BME280;20156;47.486;12.074;2023-05-09T11:42:48;94572.78;;;24.81;100.00
33859;BME280;20156;47.486;12.074;2023-05-09T11:45:15;94582.50;;;23.70;100.00
33859;BME280;20156;47.486;12.074;2023-05-09T11:47:41;94570.81;;;23.80;100.00
33859;BME280;20156;47.486;12.074;2023-05-09T11:50:11;94571.03;;;22.84;100.00
33859;BME280;20156;47.486;12.074;2023-05-09T11:52:38;94573.25;;;23.18;100.00
33859;BME280;20156;47.486;12.074;2023-05-09T11:55:15;94555.53;;;23.63;100.00
33859;BME280;20156;47.486;12.074;2023-05-09T11:57:45;94555.06;;;23.83;100.00
33859;BME280;20156;47.486;12.074;2023-05-09T12:00:10;94543.81;;;24.71;100.00
33859;BME280;20156;47.486;12.074;2023-05-09T12:02:36;94542.25;;;24.08;100.00
33859;BME280;20156;47.486;12.074;2023-05-09T12:05:13;94536.81;;;23.09;100.00
33859;BME280;20156;47.486;12.074;2023-05-09T12:07:40;94529.91;;;23.45;100.00
33859;BME280;20156;47.486;12.074;2023-05-09T12:10:10;94532.13;;;22.93;100.00
33859;BME280;20156;47.486;12.074;2023-05-09T12:12:47;94526.31;;;23.04;100.00
33859;BME280;20156;47.486;12.074;2023-05-09T12:15:13;94519.16;;;23.50;100.00
33859;BME280;20156;47.486;12.074;2023-05-09T12:17:44;94516.19;;;23.51;100.00
33859;BME280;20156;47.486;12.074;2023-05-09T12:20:10;94518.47;;;23.80;100.00
33859;BME280;20156;47.486;12.074;2023-05-09T12:22:36;94513.06;;;25.04;100.00
33859;BME280;20156;47.486;12.074;2023-05-09T12:25:05;94520.59;;;25.89;100.00
33859;BME280;20156;47.486;12.074;2023-05-09T12:27:32;94515.91;;;25.77;100.00
33859;BME280;20156;47.486;12.074;2023-05-09T12:30:03;94529.84;;;25.83;100.00
33859;BME280;20156;47.486;12.074;2023-05-09T12:32:32;94547.53;;;25.96;100.00
33859;BME280;20156;47.486;12.074;2023-05-09T12:34:59;94570.72;;;26.21;100.00